Time;durP1;ratioP1;P1;durP2;ratioP2;P2;SDS_P1;SDS_P2;PMS_P1;PMS_P2;Temp;Humidity;BMP_temperature;BMP_pressure;BME280_temperature;BME280_humidity;BME280_pressure;Samples;Min_cycle;Max_cycle;Signal;HPM_P1;HPM_P2
2022/09/09 12:18:49;;;;;;;;;3.50;1.25;;;;;20.88;75.99;100776.91;5175848;27;45438;-56
2022/09/09 12:21:39;;;;;;;;;2.25;1.75;;;;;21.16;76.17;100788.19;5145286;27;45292;-56
2022/09/09 12:24:14;;;;;;;;;5.50;2.50;;;;;21.40;75.14;100798.84;5135871;27;45491;-56
2022/09/09 12:27:09;;;;;;;;;3.00;1.75;;;;;21.51;73.55;100777.75;5149475;27;45452;-56
2022/09/09 12:29:57;;;;;;;;;3.50;2.75;;;;;21.60;73.48;100778.88;5159077;27;46107;-57
2022/09/09 12:32:26;;;;;;;;;6.50;3.75;;;;;21.64;73.83;100786.50;5158710;27;45415;-56
2022/09/09 12:34:53;;;;;;;;;2.50;2.00;;;;;21.58;73.92;100788.72;5159533;27;45242;-57
2022/09/09 12:37:42;;;;;;;;;4.00;1.50;;;;;21.52;74.13;100793.50;5158805;27;45454;-56
2022/09/09 12:40:25;;;;;;;;;2.25;2.00;;;;;21.48;75.24;100775.34;5157869;27;45270;-56
2022/09/09 12:42:50;;;;;;;;;1.50;0.75;;;;;21.46;75.57;100798.41;5154547;27;45332;-56
2022/09/09 12:45:23;;;;;;;;;2.50;2.50;;;;;21.44;74.50;100798.53;5156305;27;45299;-56
2022/09/09 12:47:55;;;;;;;;;4.75;3.00;;;;;21.40;75.22;100799.69;5140195;27;45176;-56
2022/09/09 12:50:25;;;;;;;;;4.00;3.00;;;;;21.42;75.98;100804.84;5159016;27;46137;-57
2022/09/09 12:52:54;;;;;;;;;3.50;3.50;;;;;21.37;75.54;100815.75;5144641;27;45285;-56
2022/09/09 12:55:30;;;;;;;;;9.75;2.00;;;;;21.38;75.93;100817.44;5144292;27;45390;-57
2022/09/09 12:57:59;;;;;;;;;5.25;3.00;;;;;21.40;75.94;100815.53;5159112;27;45302;-56
2022/09/09 13:00:25;;;;;;;;;5.00;2.25;;;;;21.43;76.46;100810.06;5158670;27;45991;-57
2022/09/09 13:02:56;;;;;;;;;5.25;3.00;;;;;21.50;76.68;100823.69;5155545;27;45320;-59
2022/09/09 13:05:27;;;;;;;;;5.50;4.00;;;;;21.59;77.10;100816.88;5144382;27;45396;-56
2022/09/09 13:08:02;;;;;;;;;7.75;3.50;;;;;21.51;77.78;100809.50;5138891;27;45265;-57
2022/09/09 13:10:33;;;;;;;;;3.75;2.25;;;;;21.49;77.83;100820.19;5134361;27;45485;-54
2022/09/09 13:12:59;;;;;;;;;7.25;4.00;;;;;21.49;77.91;100814.91;5135020;27;45691;-54
2022/09/09 13:15:28;;;;;;;;;3.00;2.00;;;;;21.52;78.61;100813.81;5145229;27;45622;-55
2022/09/09 13:17:57;;;;;;;;;4.25;2.50;;;;;21.67;78.73;100823.31;5141557;27;45637;-55
2022/09/09 13:20:24;;;;;;;;;5.00;3.00;;;;;21.84;78.57;100814.16;5141083;27;45728;-57
2022/09/09 13:22:52;;;;;;;;;3.50;3.50;;;;;22.05;78.37;100825.81;5152175;27;45736;-57
2022/09/09 13:25:25;;;;;;;;;3.00;2.75;;;;;22.17;76.59;100842.59;5158196;27;45355;-57
2022/09/09 13:28:03;;;;;;;;;6.75;4.00;;;;;22.22;77.63;100837.78;5137253;27;45438;-58
2022/09/09 13:30:35;;;;;;;;;3.50;3.00;;;;;22.31;77.39;100838.91;5134870;27;45422;-58
2022/09/09 13:33:14;;;;;;;;;3.25;2.00;;;;;22.30;77.09;100831.94;5144048;27;45521;-58
2022/09/09 13:35:59;;;;;;;;;4.25;3.00;;;;;22.28;76.84;100828.56;5144190;27;45258;-58
2022/09/09 13:38:25;;;;;;;;;4.00;2.75;;;;;22.17;76.53;100832.00;5127936;27;45460;-57
2022/09/09 13:40:57;;;;;;;;;3.25;3.00;;;;;22.12;76.81;100839.44;5123378;27;45342;-57
2022/09/09 13:43:24;;;;;;;;;5.75;3.00;;;;;22.08;76.87;100851.22;5123195;27;45832;-57
2022/09/09 13:45:58;;;;;;;;;3.00;2.00;;;;;21.96;77.15;100844.97;5123777;27;45342;-57
2022/09/09 13:48:25;;;;;;;;;3.75;2.25;;;;;21.82;77.20;100848.66;5122681;27;45350;-57
2022/09/09 13:51:06;;;;;;;;;4.00;1.25;;;;;21.77;77.66;100834.06;5111754;27;46776;-58
2022/09/09 13:53:32;;;;;;;;;2.75;2.75;;;;;21.74;77.48;100834.28;5121985;27;45315;-57
2022/09/09 13:55:59;;;;;;;;;2.75;2.00;;;;;21.82;77.83;100816.91;5123331;27;45353;-57
2022/09/09 13:58:25;;;;;;;;;2.25;2.25;;;;;21.96;77.29;100821.16;5122511;27;46333;-57
2022/09/09 14:00:51;;;;;;;;;4.25;2.25;;;;;22.14;77.63;100824.28;5122995;27;46124;-57
2022/09/09 14:03:16;;;;;;;;;4.00;2.00;;;;;22.28;77.25;100805.56;5122726;27;45270;-57
2022/09/09 14:05:44;;;;;;;;;2.50;2.50;;;;;22.39;75.81;100807.41;5117104;27;45674;-57
2022/09/09 14:08:16;;;;;;;;;5.25;3.00;;;;;22.46;76.24;100806.84;5143668;27;45237;-57
2022/09/09 14:10:41;;;;;;;;;4.25;2.00;;;;;22.48;74.95;100809.38;5143420;27;45298;-56
2022/09/09 14:13:08;;;;;;;;;4.50;4.50;;;;;22.44;73.22;100810.56;5143788;27;45209;-56
2022/09/09 14:15:33;;;;;;;;;1.00;1.00;;;;;22.43;74.87;100809.72;5142375;27;45184;-55
2022/09/09 14:17:58;;;;;;;;;4.50;1.00;;;;;22.45;74.27;100807.81;5143029;27;45268;-55
2022/09/09 14:20:24;;;;;;;;;3.25;2.00;;;;;22.48;74.86;100809.38;5132695;27;46337;-55
2022/09/09 14:22:49;;;;;;;;;2.50;1.50;;;;;22.57;74.14;100816.59;5140135;27;45307;-55
2022/09/09 14:25:14;;;;;;;;;3.75;2.50;;;;;22.56;73.28;100811.41;5143418;27;45260;-56
2022/09/09 14:27:42;;;;;;;;;6.75;2.00;;;;;22.62;74.34;100808.28;5122491;27;45359;-56
2022/09/09 14:30:08;;;;;;;;;2.00;2.00;;;;;22.67;73.36;100808.81;5132457;27;46382;-56
2022/09/09 14:32:33;;;;;;;;;2.00;2.00;;;;;22.72;72.41;100807.47;5141972;27;45239;-56
2022/09/09 14:34:58;;;;;;;;;1.00;1.00;;;;;22.76;72.23;100808.91;5143427;27;45316;-55
2022/09/09 14:37:24;;;;;;;;;3.25;3.00;;;;;22.81;71.78;100807.72;5141673;27;46255;-56
2022/09/09 14:39:50;;;;;;;;;2.50;1.25;;;;;22.87;71.75;100812.59;5141414;27;45362;-55
2022/09/09 14:42:16;;;;;;;;;2.25;2.25;;;;;23.00;71.83;100813.31;5142315;27;45521;-55
2022/09/09 14:44:41;;;;;;;;;1.50;1.50;;;;;23.32;71.72;100816.06;5143153;27;45212;-58
2022/09/09 14:47:08;;;;;;;;;3.25;3.00;;;;;23.72;70.94;100823.53;5142429;27;45638;-55
2022/09/09 14:49:37;;;;;;;;;2.00;1.50;;;;;24.10;70.97;100810.59;5142772;27;46294;-55
2022/09/09 14:52:03;;;;;;;;;3.75;1.25;;;;;24.81;68.55;100818.78;5135192;27;45319;-55
2022/09/09 14:54:29;;;;;;;;;2.50;2.00;;;;;25.37;65.17;100829.00;5122368;27;45344;-55
2022/09/09 14:56:54;;;;;;;;;1.00;1.00;;;;;25.41;64.07;100817.94;5122052;27;45369;-56
2022/09/09 14:59:19;;;;;;;;;2.00;1.25;;;;;25.15;63.68;100822.06;5121773;27;45388;-57
2022/09/09 15:01:45;;;;;;;;;1.00;1.00;;;;;24.67;63.29;100822.66;5121954;27;45305;-56
2022/09/09 15:04:12;;;;;;;;;2.50;2.50;;;;;24.21;64.47;100815.00;5138391;27;45275;-56
2022/09/09 15:06:39;;;;;;;;;4.00;2.75;;;;;24.02;66.38;100822.81;5130477;27;45601;-57
2022/09/09 15:09:05;;;;;;;;;2.50;1.00;;;;;24.30;67.37;100808.97;5133747;27;46174;-57
2022/09/09 15:11:37;;;;;;;;;2.00;2.00;;;;;24.60;64.30;100816.16;5142276;27;45353;-58
2022/09/09 15:14:03;;;;;;;;;2.75;1.75;;;;;24.45;65.68;100802.38;5140734;27;45440;-57
2022/09/09 15:16:29;;;;;;;;;2.75;2.00;;;;;24.41;65.93;100811.53;5121580;27;45214;-57
2022/09/09 15:18:57;;;;;;;;;1.00;1.00;;;;;25.65;67.79;100814.09;5121212;27;45926;-57
2022/09/09 15:21:25;;;;;;;;;1.00;1.00;;;;;27.87;60.50;100805.59;5109810;27;45396;-57
2022/09/09 15:23:51;;;;;;;;;2.00;2.00;;;;;30.31;57.65;100808.66;5116774;27;45415;-58
2022/09/09 15:26:17;;;;;;;;;1.00;1.00;;;;;32.31;53.93;100806.31;5120679;27;45214;-58
2022/09/09 15:28:44;;;;;;;;;2.75;2.00;;;;;33.34;49.04;100810.09;5121237;27;45470;-58
2022/09/09 15:31:30;;;;;;;;;1.00;1.00;;;;;33.03;43.18;100810.28;5121051;27;45213;-58
2022/09/09 15:34:03;;;;;;;;;0.00;0.00;;;;;31.04;45.70;100803.19;5121222;27;45357;-58
2022/09/09 15:36:34;;;;;;;;;1.25;0.75;;;;;28.98;47.97;100810.28;5121873;27;45449;-58
2022/09/09 15:39:02;;;;;;;;;5.25;1.00;;;;;27.44;50.67;100811.59;5121327;27;46529;-57
2022/09/09 15:41:28;;;;;;;;;3.00;2.00;;;;;26.32;52.46;100819.47;5121665;27;45439;-57
2022/09/09 15:44:00;;;;;;;;;1.75;1.75;;;;;25.38;54.77;100825.38;5121277;27;45247;-57
2022/09/09 15:46:32;;;;;;;;;1.75;1.00;;;;;24.77;57.20;100828.00;5114453;27;46489;-57
2022/09/09 15:49:22;;;;;;;;;3.50;1.75;;;;;24.21;58.99;100821.16;5110034;27;47335;-58
2022/09/09 15:51:55;;;;;;;;;1.00;1.00;;;;;23.81;60.20;100823.59;5110215;27;47347;-58
2022/09/09 15:54:23;;;;;;;;;4.00;2.75;;;;;23.52;62.42;100817.13;5119905;27;45485;-58
2022/09/09 15:56:57;;;;;;;;;6.00;4.00;;;;;23.31;63.15;100817.88;5117360;27;45578;-58
2022/09/09 15:59:24;;;;;;;;;6.00;4.75;;;;;23.15;64.58;100822.72;5100425;27;47264;-58
2022/09/09 16:01:52;;;;;;;;;4.25;3.00;;;;;22.99;65.55;100816.91;5120029;27;45490;-57
2022/09/09 16:04:24;;;;;;;;;1.50;1.50;;;;;22.83;65.68;100806.69;5117919;27;45313;-58
2022/09/09 16:06:54;;;;;;;;;4.00;2.50;;;;;22.74;65.90;100804.72;5118339;27;45178;-58
2022/09/09 16:09:20;;;;;;;;;2.25;2.00;;;;;22.70;66.55;100811.22;5119656;27;45383;-57
2022/09/09 16:11:46;;;;;;;;;3.00;3.00;;;;;22.73;66.75;100814.47;5120421;27;45501;-57
2022/09/09 16:14:13;;;;;;;;;3.75;2.75;;;;;22.69;68.15;100814.81;5120123;27;45218;-58
2022/09/09 16:16:38;;;;;;;;;4.75;3.50;;;;;22.57;68.13;100821.91;5120022;27;45364;-57
2022/09/09 16:19:06;;;;;;;;;1.75;1.50;;;;;22.41;68.44;100821.34;5118903;27;46108;-58
2022/09/09 16:21:37;;;;;;;;;2.00;2.00;;;;;22.28;69.20;100829.41;5119800;27;45401;-57
2022/09/09 16:24:04;;;;;;;;;2.00;2.00;;;;;22.25;69.82;100834.09;5120180;27;45457;-58
2022/09/09 16:26:31;;;;;;;;;2.50;2.25;;;;;22.16;71.10;100836.44;5118424;27;45222;-57
2022/09/09 16:29:00;;;;;;;;;1.00;1.00;;;;;22.08;72.31;100843.28;5119238;27;45318;-57
2022/09/09 16:31:27;;;;;;;;;2.00;2.00;;;;;21.92;72.86;100851.47;5119523;27;45512;-58
2022/09/09 16:33:53;;;;;;;;;2.25;1.75;;;;;21.81;74.63;100854.03;5120095;27;45173;-61
2022/09/09 16:36:20;;;;;;;;;2.00;2.00;;;;;21.79;74.86;100853.31;5110697;27;45273;-55
2022/09/09 16:38:45;;;;;;;;;2.00;2.00;;;;;21.75;76.20;100851.84;5116413;27;45342;-55
2022/09/09 16:41:13;;;;;;;;;3.75;3.00;;;;;21.76;76.59;100850.88;5120300;27;45468;-56
2022/09/09 16:43:40;;;;;;;;;0.75;0.75;;;;;21.69;76.84;100844.34;5115444;27;45243;-57
2022/09/09 16:46:17;;;;;;;;;1.00;0.00;;;;;21.68;77.39;100850.59;5110495;27;45430;-56
2022/09/09 16:48:44;;;;;;;;;3.25;1.50;;;;;21.72;77.80;100846.78;5118663;27;46171;-56
2022/09/09 16:51:27;;;;;;;;;2.00;1.75;;;;;21.81;77.67;100848.75;5118918;27;45226;-57
2022/09/09 16:53:54;;;;;;;;;0.75;0.75;;;;;21.86;78.51;100841.34;5117508;27;45417;-57
2022/09/09 16:56:25;;;;;;;;;2.00;2.00;;;;;21.89;77.93;100837.63;5117670;27;45443;-56
2022/09/09 16:58:56;;;;;;;;;2.75;2.75;;;;;21.95;78.42;100837.16;5116542;27;45472;-56
2022/09/09 17:01:23;;;;;;;;;5.75;4.00;;;;;22.03;78.02;100826.88;5118975;27;45700;-57
2022/09/09 17:03:53;;;;;;;;;2.00;2.00;;;;;22.13;78.00;100820.78;5120374;27;45359;-58
2022/09/09 17:06:19;;;;;;;;;4.25;2.00;;;;;22.22;77.66;100823.69;5106661;27;45528;-57
2022/09/09 17:08:45;;;;;;;;;1.25;1.00;;;;;22.20;77.20;100821.16;5122255;27;45247;-57
2022/09/09 17:11:15;;;;;;;;;1.75;1.75;;;;;22.14;77.14;100819.84;5122675;27;45183;-57
2022/09/09 17:13:43;;;;;;;;;2.50;2.50;;;;;22.11;77.28;100835.94;5121595;27;45443;-57
2022/09/09 17:16:09;;;;;;;;;1.00;1.00;;;;;21.99;76.57;100839.47;5122486;27;45504;-57
2022/09/09 17:18:35;;;;;;;;;3.75;2.00;;;;;21.82;76.96;100837.19;5122421;27;45456;-57
2022/09/09 17:21:07;;;;;;;;;5.75;2.00;;;;;21.67;77.62;100844.47;5117075;27;45321;-58
2022/09/09 17:23:34;;;;;;;;;1.00;0.75;;;;;21.49;77.98;100856.38;5120630;27;45250;-58
2022/09/09 17:26:00;;;;;;;;;3.25;0.50;;;;;21.33;78.54;100851.31;5124074;27;45456;-57
2022/09/09 17:28:30;;;;;;;;;2.50;1.25;;;;;21.29;78.78;100857.78;5121151;27;46911;-57
2022/09/09 17:31:05;;;;;;;;;0.50;0.50;;;;;21.25;78.39;100859.78;5122138;27;45491;-57
2022/09/09 17:33:33;;;;;;;;;1.75;1.75;;;;;21.19;78.79;100870.72;5121743;27;45200;-57
2022/09/09 17:35:59;;;;;;;;;1.75;1.75;;;;;21.18;79.02;100868.19;5123297;27;45388;-57
2022/09/09 17:38:28;;;;;;;;;0.50;0.50;;;;;21.12;79.63;100868.63;5122120;27;45535;-57
2022/09/09 17:41:09;;;;;;;;;2.75;2.75;;;;;21.07;79.38;100862.84;5122479;27;45393;-57
2022/09/09 17:43:38;;;;;;;;;2.25;1.50;;;;;21.05;79.14;100864.75;5122420;27;45345;-57
2022/09/09 17:46:22;;;;;;;;;3.25;0.75;;;;;21.03;78.92;100869.28;5122472;27;45599;-57
2022/09/09 17:48:50;;;;;;;;;0.75;0.00;;;;;20.96;79.11;100869.69;5122032;27;45492;-57
2022/09/09 17:51:24;;;;;;;;;1.00;1.00;;;;;20.88;78.67;100872.03;5122388;27;45551;-57
2022/09/09 17:53:49;;;;;;;;;1.75;1.75;;;;;20.78;77.82;100875.38;5123705;27;45234;-57
2022/09/09 17:56:19;;;;;;;;;3.00;1.50;;;;;20.66;77.90;100871.78;5121524;27;45283;-57
2022/09/09 17:58:46;;;;;;;;;0.50;0.50;;;;;20.58;78.16;100880.22;5119718;27;46062;-57
2022/09/09 18:01:14;;;;;;;;;0.75;0.75;;;;;20.49;78.66;100880.84;5122203;27;45623;-57
2022/09/09 18:03:42;;;;;;;;;4.00;3.00;;;;;20.45;78.56;100876.72;5119498;27;45607;-57
2022/09/09 18:06:15;;;;;;;;;1.50;1.00;;;;;20.44;78.43;100887.38;5121784;27;45425;-59
2022/09/09 18:08:41;;;;;;;;;1.00;1.00;;;;;20.38;79.60;100878.00;5121958;27;46388;-57
2022/09/09 18:11:07;;;;;;;;;2.75;1.00;;;;;20.33;79.96;100882.75;5119841;27;45366;-60
2022/09/09 18:13:33;;;;;;;;;2.75;2.75;;;;;20.41;80.71;100883.13;5117609;27;45445;-64
2022/09/09 18:15:59;;;;;;;;;2.25;2.25;;;;;20.49;80.24;100888.75;5122130;27;45680;-62
2022/09/09 18:18:25;;;;;;;;;3.00;3.00;;;;;20.47;80.20;100892.44;5121010;27;45982;-60
2022/09/09 18:21:05;;;;;;;;;2.00;0.00;;;;;20.39;81.31;100882.34;5113213;27;45444;-61
2022/09/09 18:23:36;;;;;;;;;4.00;2.00;;;;;20.31;80.48;100887.28;5123933;27;45542;-58
2022/09/09 18:26:05;;;;;;;;;3.75;2.75;;;;;20.20;80.20;100880.06;5104137;27;45533;-58
2022/09/09 18:28:31;;;;;;;;;3.00;2.00;;;;;20.13;80.78;100886.69;5109508;27;47047;-60
2022/09/09 18:30:56;;;;;;;;;4.00;2.25;;;;;20.08;80.50;100890.59;5129806;27;49386;-59
2022/09/09 18:33:21;;;;;;;;;2.25;2.25;;;;;20.00;81.43;100888.44;5122801;27;45468;-59
2022/09/09 18:35:47;;;;;;;;;3.00;2.00;;;;;19.91;81.28;100887.25;5137021;27;46854;-57
2022/09/09 18:38:12;;;;;;;;;4.00;2.00;;;;;19.88;81.97;100883.97;5126342;27;45511;-56
2022/09/09 18:40:38;;;;;;;;;3.00;3.00;;;;;19.86;82.58;100880.56;5121807;27;45417;-56
2022/09/09 18:43:04;;;;;;;;;5.00;2.00;;;;;19.82;82.57;100884.31;5126173;27;45613;-61
2022/09/09 18:45:29;;;;;;;;;4.50;2.50;;;;;19.81;83.22;100894.03;5128186;27;45327;-56
2022/09/09 18:47:55;;;;;;;;;4.75;2.25;;;;;19.78;83.25;100893.38;5119518;27;46226;-56
2022/09/09 18:50:21;;;;;;;;;4.00;2.75;;;;;19.74;84.13;100905.91;5121293;27;45682;-56
2022/09/09 18:52:47;;;;;;;;;3.00;3.00;;;;;19.70;84.16;100905.28;5128946;27;45410;-56
2022/09/09 18:55:12;;;;;;;;;3.50;3.00;;;;;19.68;84.40;100908.94;5121102;27;45582;-56
2022/09/09 18:57:38;;;;;;;;;4.00;3.00;;;;;19.65;84.61;100912.63;5130388;27;45399;-56
2022/09/09 19:00:05;;;;;;;;;3.00;3.00;;;;;19.60;84.29;100909.41;5131606;27;45275;-56
2022/09/09 19:02:31;;;;;;;;;3.00;3.00;;;;;19.56;84.74;100913.19;5127723;27;45462;-56
2022/09/09 19:04:57;;;;;;;;;3.00;3.00;;;;;19.53;85.17;100915.13;5131466;27;45326;-54
2022/09/09 19:07:22;;;;;;;;;4.00;2.75;;;;;19.51;84.43;100920.50;5130506;27;45582;-53
2022/09/09 19:09:48;;;;;;;;;3.00;2.00;;;;;19.47;86.16;100921.66;5111158;27;52076;-53
2022/09/09 19:12:13;;;;;;;;;3.00;3.00;;;;;19.44;85.46;100927.13;5131107;27;47119;-54
2022/09/09 19:14:38;;;;;;;;;3.50;2.00;;;;;19.43;85.18;100925.41;5119581;27;45966;-55
2022/09/09 19:17:03;;;;;;;;;2.00;2.00;;;;;19.41;85.52;100925.47;5120877;27;46102;-54
2022/09/09 19:19:31;;;;;;;;;3.75;2.75;;;;;19.39;85.46;100926.53;5110464;27;45239;-56
2022/09/09 19:21:57;;;;;;;;;3.25;3.00;;;;;19.41;84.88;100941.31;5123720;27;45498;-55
2022/09/09 19:24:29;;;;;;;;;3.75;2.50;;;;;19.40;84.98;100942.25;5108088;27;45444;-55
2022/09/09 19:26:57;;;;;;;;;2.75;2.75;;;;;19.41;84.49;100943.09;5120645;27;45367;-54
2022/09/09 19:29:25;;;;;;;;;2.00;1.75;;;;;19.36;85.36;100943.38;5103709;27;45517;-54
2022/09/09 19:31:52;;;;;;;;;2.00;2.00;;;;;19.34;84.92;100953.16;5121421;27;45479;-57
2022/09/09 19:34:19;;;;;;;;;5.75;1.75;;;;;19.32;85.30;100955.06;5122771;27;45346;-57
2022/09/09 19:36:45;;;;;;;;;5.00;3.00;;;;;19.32;85.31;100959.47;5126637;27;47238;-55
2022/09/09 19:39:11;;;;;;;;;2.50;2.50;;;;;19.30;85.71;100964.00;5129584;27;45426;-61
2022/09/09 19:41:37;;;;;;;;;4.50;1.50;;;;;19.29;85.83;100967.56;5131466;27;45300;-55
2022/09/09 19:44:04;;;;;;;;;1.50;1.25;;;;;19.25;86.09;100972.19;5122426;27;45451;-56
2022/09/09 19:46:33;;;;;;;;;5.75;3.25;;;;;19.22;85.86;100971.50;5129033;27;47054;-56
2022/09/09 19:49:00;;;;;;;;;4.50;2.50;;;;;19.17;86.68;100982.31;5130550;27;45326;-56
2022/09/09 19:51:28;;;;;;;;;4.00;3.00;;;;;19.18;86.99;100977.88;5130546;27;45295;-56
2022/09/09 19:54:08;;;;;;;;;5.50;2.75;;;;;19.14;88.92;100980.72;5131071;27;45511;-56
2022/09/09 19:56:36;;;;;;;;;4.25;3.00;;;;;19.12;87.74;100979.09;5125846;27;47044;-56
2022/09/09 19:59:03;;;;;;;;;4.25;2.25;;;;;19.10;87.91;100989.75;5123150;27;45743;-58
2022/09/09 20:01:33;;;;;;;;;4.75;3.00;;;;;19.09;88.30;100992.47;5123901;27;45486;-57
2022/09/09 20:04:02;;;;;;;;;1.00;1.00;;;;;19.08;88.55;100988.97;5122061;27;45461;-57
2022/09/09 20:06:39;;;;;;;;;4.00;4.00;;;;;19.09;88.88;100995.94;5119455;27;45482;-57
2022/09/09 20:09:06;;;;;;;;;3.00;3.00;;;;;19.09;89.07;101000.38;5118694;27;46077;-57
2022/09/09 20:11:33;;;;;;;;;3.75;3.50;;;;;19.10;88.88;100997.66;5120437;27;45429;-57
2022/09/09 20:13:58;;;;;;;;;4.75;4.00;;;;;19.09;89.32;100998.59;5118271;27;45580;-56
2022/09/09 20:16:26;;;;;;;;;4.00;4.00;;;;;19.10;89.19;101002.91;5117076;27;46002;-57
2022/09/09 20:18:55;;;;;;;;;4.50;2.00;;;;;19.10;89.49;101000.28;5108243;27;45480;-56
2022/09/09 20:21:23;;;;;;;;;5.25;4.50;;;;;19.08;90.45;101002.16;5116331;27;45260;-58
2022/09/09 20:23:50;;;;;;;;;4.50;2.75;;;;;19.05;90.75;100996.22;5115369;27;45581;-56
2022/09/09 20:26:20;;;;;;;;;7.50;4.75;;;;;18.99;90.48;101000.03;5119372;27;46239;-56
2022/09/09 20:28:48;;;;;;;;;7.75;4.00;;;;;18.96;90.01;100994.13;5120513;27;45361;-56
2022/09/09 20:31:16;;;;;;;;;3.00;3.00;;;;;18.96;89.32;100999.38;5120503;27;45230;-54
2022/09/09 20:33:42;;;;;;;;;3.50;2.75;;;;;18.94;90.50;100998.63;5118947;27;45365;-54
2022/09/09 20:36:32;;;;;;;;;5.25;2.00;;;;;18.91;91.62;100999.66;5120932;27;46241;-57
2022/09/09 20:39:00;;;;;;;;;7.25;4.00;;;;;18.88;90.96;100996.34;5095656;27;45506;-57
2022/09/09 20:41:31;;;;;;;;;4.25;3.00;;;;;18.80;91.40;100991.50;5124843;27;45484;-60
2022/09/09 20:44:00;;;;;;;;;3.00;3.00;;;;;18.83;91.64;100994.00;5123924;27;45504;-56
2022/09/09 20:46:31;;;;;;;;;3.00;2.00;;;;;18.82;91.09;101005.44;5117318;27;46225;-58
2022/09/09 20:48:57;;;;;;;;;4.50;3.00;;;;;18.78;91.87;100998.66;5111348;27;45549;-56
2022/09/09 20:51:25;;;;;;;;;2.00;2.00;;;;;18.76;92.57;100997.91;5117539;27;45504;-56
2022/09/09 20:54:02;;;;;;;;;3.50;3.00;;;;;18.75;92.21;101012.00;5124478;27;45202;-55
2022/09/09 20:56:31;;;;;;;;;4.00;3.50;;;;;18.75;92.79;101007.56;5102941;27;46238;-56
2022/09/09 20:58:57;;;;;;;;;5.00;3.00;;;;;18.75;93.18;101019.91;5113558;27;45275;-55
2022/09/09 21:01:22;;;;;;;;;2.25;2.25;;;;;18.73;92.81;101014.72;5116948;27;45280;-56
2022/09/09 21:03:48;;;;;;;;;3.50;3.00;;;;;18.74;93.56;101016.41;5112885;27;45307;-56
2022/09/09 21:06:15;;;;;;;;;6.25;4.00;;;;;18.74;93.32;101015.56;5108828;27;46854;-56
2022/09/09 21:08:41;;;;;;;;;3.00;2.00;;;;;18.74;93.24;101005.88;5091479;27;45651;-56
2022/09/09 21:11:07;;;;;;;;;4.00;3.25;;;;;18.76;93.32;101018.97;5118852;27;45329;-57
2022/09/09 21:13:37;;;;;;;;;4.00;4.00;;;;;18.79;92.77;101019.63;5123806;27;45324;-56
2022/09/09 21:16:05;;;;;;;;;2.50;2.00;;;;;18.80;92.19;101007.31;5122937;27;45296;-56
2022/09/09 21:18:32;;;;;;;;;2.00;2.00;;;;;18.80;93.11;101005.53;5123322;27;45442;-56
2022/09/09 21:20:57;;;;;;;;;4.00;2.00;;;;;18.79;91.58;101010.88;5109213;27;45480;-56
2022/09/09 21:23:23;;;;;;;;;16.00;14.00;;;;;18.78;91.99;101014.44;5116685;27;45682;-56
2022/09/09 21:25:49;;;;;;;;;2.00;2.00;;;;;18.76;91.48;101018.97;5122111;27;46114;-56
2022/09/09 21:28:15;;;;;;;;;1.50;1.50;;;;;18.73;91.60;101011.25;5123704;27;45327;-56
2022/09/09 21:30:45;;;;;;;;;2.75;2.75;;;;;18.69;91.62;101015.00;5121084;27;45323;-56
2022/09/09 21:33:11;;;;;;;;;4.00;2.75;;;;;18.65;91.43;101010.84;5109902;27;45430;-56
2022/09/09 21:35:38;;;;;;;;;2.00;2.00;;;;;18.61;90.89;101015.38;5122611;27;45669;-56
2022/09/09 21:38:05;;;;;;;;;3.75;2.75;;;;;18.60;90.79;101013.69;5123144;27;45703;-56
2022/09/09 21:40:31;;;;;;;;;2.00;2.00;;;;;18.55;90.14;101019.19;5123123;27;45394;-56
2022/09/09 21:42:58;;;;;;;;;2.00;2.00;;;;;18.52;90.39;101015.91;5123234;27;45362;-57
2022/09/09 21:45:24;;;;;;;;;4.00;2.75;;;;;18.50;90.11;101029.16;5115008;27;46337;-56
2022/09/09 21:47:51;;;;;;;;;2.00;2.00;;;;;18.48;89.78;101031.03;5113980;27;45287;-56
2022/09/09 21:50:20;;;;;;;;;2.00;1.25;;;;;18.43;89.81;101035.69;5122749;27;45457;-58
2022/09/09 21:52:46;;;;;;;;;1.75;1.75;;;;;18.42;89.73;101023.47;5123141;27;45486;-56
2022/09/09 21:55:11;;;;;;;;;5.00;2.75;;;;;18.42;89.44;101020.84;5123029;27;46251;-56
2022/09/09 21:57:36;;;;;;;;;10.50;7.00;;;;;18.42;89.51;101028.75;5123053;27;45273;-56
2022/09/09 22:00:06;;;;;;;;;6.00;2.00;;;;;18.41;89.40;101034.91;5123686;27;45530;-57
2022/09/09 22:02:36;;;;;;;;;3.00;2.00;;;;;18.39;89.33;101030.66;5129265;27;45389;-56
2022/09/09 22:05:02;;;;;;;;;3.25;2.25;;;;;18.38;89.15;101040.34;5116465;27;45974;-55
2022/09/09 22:07:28;;;;;;;;;2.00;2.00;;;;;18.35;89.58;101034.41;5124125;27;45557;-55
2022/09/09 22:09:53;;;;;;;;;4.75;2.75;;;;;18.34;89.19;101036.19;5118652;27;45251;-55
2022/09/09 22:12:19;;;;;;;;;5.25;3.25;;;;;18.32;89.25;101034.59;5129780;27;45360;-55
2022/09/09 22:14:45;;;;;;;;;2.00;2.00;;;;;18.29;90.14;101032.97;5125168;27;45227;-55
2022/09/09 22:17:11;;;;;;;;;7.50;3.00;;;;;18.28;89.72;101043.59;5112816;27;45459;-55
2022/09/09 22:19:36;;;;;;;;;5.00;2.00;;;;;18.24;89.60;101048.16;5112150;27;45523;-55
2022/09/09 22:22:01;;;;;;;;;3.00;2.00;;;;;18.22;88.86;101043.00;5112651;27;45368;-56
2022/09/09 22:24:27;;;;;;;;;2.00;2.00;;;;;18.19;89.05;101051.03;5093003;27;46037;-55
2022/09/09 22:26:54;;;;;;;;;1.25;1.00;;;;;18.16;89.23;101040.66;5094415;27;45413;-55
2022/09/09 22:29:20;;;;;;;;;4.25;2.75;;;;;18.16;88.90;101045.09;5113502;27;45421;-55
2022/09/09 22:31:46;;;;;;;;;2.00;1.50;;;;;18.14;89.24;101041.69;5122209;27;45284;-55
2022/09/09 22:34:11;;;;;;;;;3.50;3.50;;;;;18.16;89.28;101045.94;5122987;27;46020;-55
2022/09/09 22:36:36;;;;;;;;;2.00;0.00;;;;;18.10;89.13;101048.91;5123058;27;45394;-56
2022/09/09 22:39:03;;;;;;;;;4.50;2.00;;;;;18.08;89.48;101052.56;5122434;27;45219;-55
2022/09/09 22:41:28;;;;;;;;;2.00;1.00;;;;;18.04;89.44;101059.75;5120017;27;45216;-55
2022/09/09 22:43:54;;;;;;;;;4.00;3.00;;;;;18.01;89.88;101059.91;5121586;27;46142;-55
2022/09/09 22:46:22;;;;;;;;;2.00;2.00;;;;;17.99;89.34;101058.28;5123007;27;45350;-55
2022/09/09 22:48:48;;;;;;;;;4.50;2.00;;;;;17.97;89.51;101044.38;5106241;27;45382;-55
2022/09/09 22:51:14;;;;;;;;;1.50;0.25;;;;;17.93;90.68;101056.84;5112150;27;45350;-55
2022/09/09 22:53:41;;;;;;;;;1.25;1.25;;;;;17.91;90.07;101051.66;5095932;27;47941;-55
2022/09/09 22:56:11;;;;;;;;;2.00;1.25;;;;;17.89;90.32;101036.91;5111663;27;45471;-55
2022/09/09 22:58:37;;;;;;;;;3.00;3.00;;;;;17.89;90.45;101052.69;5112030;27;45620;-56
2022/09/09 23:01:14;;;;;;;;;3.00;3.00;;;;;17.87;90.25;101052.75;5112218;27;45332;-55
2022/09/09 23:03:41;;;;;;;;;2.00;2.00;;;;;17.86;90.17;101051.06;5130236;27;45519;-55
2022/09/09 23:06:08;;;;;;;;;2.00;2.00;;;;;17.86;90.46;101052.84;5131909;27;45281;-55
2022/09/09 23:08:36;;;;;;;;;4.00;3.00;;;;;17.83;90.94;101051.22;5127801;27;45575;-55
2022/09/09 23:11:08;;;;;;;;;5.25;2.00;;;;;17.81;90.21;101052.22;5131189;27;45361;-56
2022/09/09 23:13:41;;;;;;;;;2.00;2.00;;;;;17.80;90.67;101051.38;5125054;27;46150;-56
2022/09/09 23:16:15;;;;;;;;;4.00;2.75;;;;;17.78;90.88;101047.13;5111752;27;45305;-56
2022/09/09 23:18:42;;;;;;;;;3.00;3.00;;;;;17.76;90.61;101043.72;5112361;27;45273;-56
2022/09/09 23:21:10;;;;;;;;;4.25;3.50;;;;;17.77;90.66;101048.06;5112287;27;45425;-57
2022/09/09 23:23:37;;;;;;;;;2.75;1.50;;;;;17.76;91.01;101044.56;5109323;27;46343;-56
2022/09/09 23:26:08;;;;;;;;;5.00;2.00;;;;;17.75;91.11;101037.63;5106409;27;45796;-56
2022/09/09 23:28:36;;;;;;;;;5.00;2.00;;;;;17.71;90.97;101043.97;5113415;27;45511;-56
2022/09/09 23:31:08;;;;;;;;;5.25;2.00;;;;;17.70;91.72;101041.44;5116908;27;45502;-56
2022/09/09 23:33:35;;;;;;;;;1.75;1.75;;;;;17.70;91.65;101034.38;5116032;27;46561;-57
2022/09/09 23:36:06;;;;;;;;;3.50;1.25;;;;;17.66;91.68;101035.47;5113647;27;45427;-56
2022/09/09 23:38:32;;;;;;;;;7.25;2.00;;;;;17.66;92.10;101045.13;5118687;27;44837;-57
2022/09/09 23:41:00;;;;;;;;;5.00;2.50;;;;;17.64;91.75;101056.56;5110435;27;45615;-56
2022/09/09 23:43:26;;;;;;;;;1.75;1.75;;;;;17.65;91.63;101049.53;5120022;27;46241;-56
2022/09/09 23:45:52;;;;;;;;;3.50;3.00;;;;;17.62;91.77;101034.78;5100176;27;45455;-56
2022/09/09 23:48:18;;;;;;;;;3.00;3.00;;;;;17.61;92.46;101042.69;5117291;27;45467;-56